Minneapolis, Minnesota
Traffic Map
Current Weather Conditions
Minneapolis, Minnesota
Overcast
Overcast
23°
Feels Like: 15°
Wind Chill: 15° Ceiling: 5500
Heat Index: 23° Visibility: 10mi
Dew Point: 14° Wind: 7mph
Humidity: 68% Direction: 140° (SE)
Pressure: 30.03in Gusts: 0mph
Raw Report DataKMSP 252353Z 14006KT 10SM OVC055 M05/M10 A3003 RMK AO2 SLP185 T10501100 11044 21078 58003
Traffic Incident Summary
Active as of:
Severity:
Category:
InformationThere was an issue retrieving the traffic information for this location. Please try a different location or try again shortly.
Advertisements
Track Severe Weather on mobile